Aviation Digital Data Service (ADDS)

Output produced by METARs form (1440 UTC 19 April 2019)
found at http://www.aviationweather.gov/metar/data/
 
METAR text: NVVV 191400Z 02002KT 9999 BKN018 OVC040 24/24 Q1010 RMK RESH
Conditions at: NVVV (BAUERFIELD/EFATE, VU) observed 1400 UTC 19 April 2019
Temperature: 24.0°C (75°F)
Dewpoint: 24.0°C (75°F) [RH = 100%]
Pressure (altimeter): 29.82 inches Hg (1010.0 mb)
Winds: from the NNE (20 degrees) at 2 MPH (2 knots; 1.0 m/s)
Visibility: 6 or more miles (10+ km)
Ceiling: 1800 feet AGL
Clouds: broken clouds at 1800 feet AGL
overcast cloud deck at 4000 feet AGL
Weather: no significant weather observed at this time

METAR text: NVVV 191300Z 31001KT 9999 SHRA BKN018 OVC040 24/24 Q1012
Conditions at: NVVV (BAUERFIELD/EFATE, VU) observed 1300 UTC 19 April 2019
Temperature: 24.0°C (75°F)
Dewpoint: 24.0°C (75°F) [RH = 100%]
Pressure (altimeter): 29.88 inches Hg (1012.0 mb)
Winds: from the NW (310 degrees) at 1 MPH (1 knots; 0.5 m/s)
Visibility: 6 or more miles (10+ km)
Ceiling: 1800 feet AGL
Clouds: broken clouds at 1800 feet AGL
overcast cloud deck at 4000 feet AGL
Weather: SHRA  (rain showers)

METAR text: NVVV 191200Z 02002KT 9999 BKN020 24/24 Q1012 RMK RERA
Conditions at: NVVV (BAUERFIELD/EFATE, VU) observed 1200 UTC 19 April 2019
Temperature: 24.0°C (75°F)
Dewpoint: 24.0°C (75°F) [RH = 100%]
Pressure (altimeter): 29.88 inches Hg (1012.0 mb)
Winds: from the NNE (20 degrees) at 2 MPH (2 knots; 1.0 m/s)
Visibility: 6 or more miles (10+ km)
Ceiling: 2000 feet AGL
Clouds: broken clouds at 2000 feet AGL
Weather: no significant weather observed at this time

METAR text: NVVV 191000Z 06002KT 9999 BKN020 25/24 Q1011
Conditions at: NVVV (BAUERFIELD/EFATE, VU) observed 1000 UTC 19 April 2019
Temperature: 25.0°C (77°F)
Dewpoint: 24.0°C (75°F) [RH = 94%]
Pressure (altimeter): 29.85 inches Hg (1011.0 mb)
Winds: from the ENE (60 degrees) at 2 MPH (2 knots; 1.0 m/s)
Visibility: 6 or more miles (10+ km)
Ceiling: 2000 feet AGL
Clouds: broken clouds at 2000 feet AGL
Weather: no significant weather observed at this time

METAR text: NVVV 190900Z 06002KT 9999 SCT020 BKN300 25/24 Q1011
Conditions at: NVVV (BAUERFIELD/EFATE, VU) observed 0900 UTC 19 April 2019
Temperature: 25.0°C (77°F)
Dewpoint: 24.0°C (75°F) [RH = 94%]
Pressure (altimeter): 29.85 inches Hg (1011.0 mb)
Winds: from the ENE (60 degrees) at 2 MPH (2 knots; 1.0 m/s)
Visibility: 6 or more miles (10+ km)
Ceiling: 30000 feet AGL
Clouds: scattered clouds at 2000 feet AGL
broken clouds at 30000 feet AGL
Weather: no significant weather observed at this time

METAR text: NVVV 190800Z 12004KT 9999 SCT020 BKN040 26/25 Q1010 RMK RESH
Conditions at: NVVV (BAUERFIELD/EFATE, VU) observed 0800 UTC 19 April 2019
Temperature: 26.0°C (79°F)
Dewpoint: 25.0°C (77°F) [RH = 94%]
Pressure (altimeter): 29.82 inches Hg (1010.0 mb)
Winds: from the ESE (120 degrees) at 5 MPH (4 knots; 2.1 m/s)
Visibility: 6 or more miles (10+ km)
Ceiling: 4000 feet AGL
Clouds: scattered clouds at 2000 feet AGL
broken clouds at 4000 feet AGL
Weather: no significant weather observed at this time

METAR text: NVVV 190700Z 09004KT 9999 SCT020 BKN120 28/25 Q1009
Conditions at: NVVV (BAUERFIELD/EFATE, VU) observed 0700 UTC 19 April 2019
Temperature: 28.0°C (82°F)
Dewpoint: 25.0°C (77°F) [RH = 84%]
Pressure (altimeter): 29.79 inches Hg (1009.0 mb)
Winds: from the E (90 degrees) at 5 MPH (4 knots; 2.1 m/s)
Visibility: 6 or more miles (10+ km)
Ceiling: 12000 feet AGL
Clouds: scattered clouds at 2000 feet AGL
broken clouds at 12000 feet AGL
Weather: no significant weather observed at this time

METAR text: NVVV 190600Z 08004KT 9999 SCT020 BKN120 29/25 Q1009
Conditions at: NVVV (BAUERFIELD/EFATE, VU) observed 0600 UTC 19 April 2019
Temperature: 29.0°C (84°F)
Dewpoint: 25.0°C (77°F) [RH = 79%]
Pressure (altimeter): 29.79 inches Hg (1009.0 mb)
Winds: from the E (80 degrees) at 5 MPH (4 knots; 2.1 m/s)
Visibility: 6 or more miles (10+ km)
Ceiling: 12000 feet AGL
Clouds: scattered clouds at 2000 feet AGL
broken clouds at 12000 feet AGL
Weather: no significant weather observed at this time

METAR text: NVVV 190500Z 07006KT 9999 SCT020 BKN120 30/25 Q1009
Conditions at: NVVV (BAUERFIELD/EFATE, VU) observed 0500 UTC 19 April 2019
Temperature: 30.0°C (86°F)
Dewpoint: 25.0°C (77°F) [RH = 75%]
Pressure (altimeter): 29.79 inches Hg (1009.0 mb)
Winds: from the ENE (70 degrees) at 7 MPH (6 knots; 3.1 m/s)
Visibility: 6 or more miles (10+ km)
Ceiling: 12000 feet AGL
Clouds: scattered clouds at 2000 feet AGL
broken clouds at 12000 feet AGL
Weather: no significant weather observed at this time

METAR text: NVVV 190400Z 08007KT 9999 SCT020 BKN120 31/25 Q1009
Conditions at: NVVV (BAUERFIELD/EFATE, VU) observed 0400 UTC 19 April 2019
Temperature: 31.0°C (88°F)
Dewpoint: 25.0°C (77°F) [RH = 71%]
Pressure (altimeter): 29.79 inches Hg (1009.0 mb)
Winds: from the E (80 degrees) at 8 MPH (7 knots; 3.6 m/s)
Visibility: 6 or more miles (10+ km)
Ceiling: 12000 feet AGL
Clouds: scattered clouds at 2000 feet AGL
broken clouds at 12000 feet AGL
Weather: no significant weather observed at this time

METAR text: NVVV 190300Z 07008KT 9999 FEW020 BKN120 31/24 Q1009
Conditions at: NVVV (BAUERFIELD/EFATE, VU) observed 0300 UTC 19 April 2019
Temperature: 31.0°C (88°F)
Dewpoint: 24.0°C (75°F) [RH = 66%]
Pressure (altimeter): 29.79 inches Hg (1009.0 mb)
Winds: from the ENE (70 degrees) at 9 MPH (8 knots; 4.1 m/s)
Visibility: 6 or more miles (10+ km)
Ceiling: 12000 feet AGL
Clouds: few clouds at 2000 feet AGL
broken clouds at 12000 feet AGL
Weather: no significant weather observed at this time

METAR text: NVVV 190200Z 07007KT 9999 SCT020 BKN120 31/24 Q1009
Conditions at: NVVV (BAUERFIELD/EFATE, VU) observed 0200 UTC 19 April 2019
Temperature: 31.0°C (88°F)
Dewpoint: 24.0°C (75°F) [RH = 66%]
Pressure (altimeter): 29.79 inches Hg (1009.0 mb)
Winds: from the ENE (70 degrees) at 8 MPH (7 knots; 3.6 m/s)
Visibility: 6 or more miles (10+ km)
Ceiling: 12000 feet AGL
Clouds: scattered clouds at 2000 feet AGL
broken clouds at 12000 feet AGL
Weather: no significant weather observed at this time

METAR text: NVVV 190100Z 10009KT 9999 SCT020 31/25 Q1011
Conditions at: NVVV (BAUERFIELD/EFATE, VU) observed 0100 UTC 19 April 2019
Temperature: 31.0°C (88°F)
Dewpoint: 25.0°C (77°F) [RH = 71%]
Pressure (altimeter): 29.85 inches Hg (1011.0 mb)
Winds: from the E (100 degrees) at 10 MPH (9 knots; 4.6 m/s)
Visibility: 6 or more miles (10+ km)
Ceiling: at least 12,000 feet AGL
Clouds: scattered clouds at 2000 feet AGL
Weather: no significant weather observed at this time

METAR text: NVVV 190000Z 10009KT 9999 SCT020 31/25 Q1011
Conditions at: NVVV (BAUERFIELD/EFATE, VU) observed 0000 UTC 19 April 2019
Temperature: 31.0°C (88°F)
Dewpoint: 25.0°C (77°F) [RH = 71%]
Pressure (altimeter): 29.85 inches Hg (1011.0 mb)
Winds: from the E (100 degrees) at 10 MPH (9 knots; 4.6 m/s)
Visibility: 6 or more miles (10+ km)
Ceiling: at least 12,000 feet AGL
Clouds: scattered clouds at 2000 feet AGL
Weather: no significant weather observed at this time

METAR text: NVVV 182300Z 10007KT 9999 SCT020 30/25 Q1012
Conditions at: NVVV (BAUERFIELD/EFATE, VU) observed 2300 UTC 18 April 2019
Temperature: 30.0°C (86°F)
Dewpoint: 25.0°C (77°F) [RH = 75%]
Pressure (altimeter): 29.88 inches Hg (1012.0 mb)
Winds: from the E (100 degrees) at 8 MPH (7 knots; 3.6 m/s)
Visibility: 6 or more miles (10+ km)
Ceiling: at least 12,000 feet AGL
Clouds: scattered clouds at 2000 feet AGL
Weather: no significant weather observed at this time

METAR text: NVVV 182200Z 09008KT 9999 FEW025 SCT120 29/25 Q1012
Conditions at: NVVV (BAUERFIELD/EFATE, VU) observed 2200 UTC 18 April 2019
Temperature: 29.0°C (84°F)
Dewpoint: 25.0°C (77°F) [RH = 79%]
Pressure (altimeter): 29.88 inches Hg (1012.0 mb)
Winds: from the E (90 degrees) at 9 MPH (8 knots; 4.1 m/s)
Visibility: 6 or more miles (10+ km)
Ceiling: at least 12,000 feet AGL
Clouds: few clouds at 2500 feet AGL
scattered clouds at 12000 feet AGL
Weather: no significant weather observed at this time

METAR text: NVVV 182100Z 08002KT 9999 FEW025 27/26 Q1012
Conditions at: NVVV (BAUERFIELD/EFATE, VU) observed 2100 UTC 18 April 2019
Temperature: 27.0°C (81°F)
Dewpoint: 26.0°C (79°F) [RH = 94%]
Pressure (altimeter): 29.88 inches Hg (1012.0 mb)
Winds: from the E (80 degrees) at 2 MPH (2 knots; 1.0 m/s)
Visibility: 6 or more miles (10+ km)
Ceiling: at least 12,000 feet AGL
Clouds: few clouds at 2500 feet AGL
Weather: no significant weather observed at this time

METAR text: NVVV 182000Z 09002KT 9999 FEW020 SCT300 24/24 Q1012
Conditions at: NVVV (BAUERFIELD/EFATE, VU) observed 2000 UTC 18 April 2019
Temperature: 24.0°C (75°F)
Dewpoint: 24.0°C (75°F) [RH = 100%]
Pressure (altimeter): 29.88 inches Hg (1012.0 mb)
Winds: from the E (90 degrees) at 2 MPH (2 knots; 1.0 m/s)
Visibility: 6 or more miles (10+ km)
Ceiling: at least 12,000 feet AGL
Clouds: few clouds at 2000 feet AGL
scattered clouds at 30000 feet AGL
Weather: no significant weather observed at this time

METAR text: NVVV 181900Z 06001KT 9999 FEW020 22/22 Q1011 RMK FG
Conditions at: NVVV (BAUERFIELD/EFATE, VU) observed 1900 UTC 18 April 2019
Temperature: 22.0°C (72°F)
Dewpoint: 22.0°C (72°F) [RH = 100%]
Pressure (altimeter): 29.85 inches Hg (1011.0 mb)
Winds: from the ENE (60 degrees) at 1 MPH (1 knots; 0.5 m/s)
Visibility: 6 or more miles (10+ km)
Ceiling: at least 12,000 feet AGL
Clouds: few clouds at 2000 feet AGL
Weather: no significant weather observed at this time

METAR text: NVVV 181800Z 06001KT 9999 FEW020 22/22 Q1010
Conditions at: NVVV (BAUERFIELD/EFATE, VU) observed 1800 UTC 18 April 2019
Temperature: 22.0°C (72°F)
Dewpoint: 22.0°C (72°F) [RH = 100%]
Pressure (altimeter): 29.82 inches Hg (1010.0 mb)
Winds: from the ENE (60 degrees) at 1 MPH (1 knots; 0.5 m/s)
Visibility: 6 or more miles (10+ km)
Ceiling: at least 12,000 feet AGL
Clouds: few clouds at 2000 feet AGL
Weather: no significant weather observed at this time

METAR text: NVVV 181700Z 10004KT 9999 FEW020 22/22 Q1010 RMK BR
Conditions at: NVVV (BAUERFIELD/EFATE, VU) observed 1700 UTC 18 April 2019
Temperature: 22.0°C (72°F)
Dewpoint: 22.0°C (72°F) [RH = 100%]
Pressure (altimeter): 29.82 inches Hg (1010.0 mb)
Winds: from the E (100 degrees) at 5 MPH (4 knots; 2.1 m/s)
Visibility: 6 or more miles (10+ km)
Ceiling: at least 12,000 feet AGL
Clouds: few clouds at 2000 feet AGL
Weather: no significant weather observed at this time

METAR text: NVVV 181600Z 09001KT 9999 FEW020 22/22 Q1010 RMK FG
Conditions at: NVVV (BAUERFIELD/EFATE, VU) observed 1600 UTC 18 April 2019
Temperature: 22.0°C (72°F)
Dewpoint: 22.0°C (72°F) [RH = 100%]
Pressure (altimeter): 29.82 inches Hg (1010.0 mb)
Winds: from the E (90 degrees) at 1 MPH (1 knots; 0.5 m/s)
Visibility: 6 or more miles (10+ km)
Ceiling: at least 12,000 feet AGL
Clouds: few clouds at 2000 feet AGL
Weather: no significant weather observed at this time

METAR text: NVVV 181500Z 05002KT 9999 FEW020 22/22 Q1011 RMK FG
Conditions at: NVVV (BAUERFIELD/EFATE, VU) observed 1500 UTC 18 April 2019
Temperature: 22.0°C (72°F)
Dewpoint: 22.0°C (72°F) [RH = 100%]
Pressure (altimeter): 29.85 inches Hg (1011.0 mb)
Winds: from the NE (50 degrees) at 2 MPH (2 knots; 1.0 m/s)
Visibility: 6 or more miles (10+ km)
Ceiling: at least 12,000 feet AGL
Clouds: few clouds at 2000 feet AGL
Weather: no significant weather observed at this time

METAR text: NVVV 181400Z 10003KT 9999 FEW020 22/22 Q1011
Conditions at: NVVV (BAUERFIELD/EFATE, VU) observed 1400 UTC 18 April 2019
Temperature: 22.0°C (72°F)
Dewpoint: 22.0°C (72°F) [RH = 100%]
Pressure (altimeter): 29.85 inches Hg (1011.0 mb)
Winds: from the E (100 degrees) at 3 MPH (3 knots; 1.5 m/s)
Visibility: 6 or more miles (10+ km)
Ceiling: at least 12,000 feet AGL
Clouds: few clouds at 2000 feet AGL
Weather: no significant weather observed at this time

METAR text: NVVV 181300Z 06002KT 9999 FEW020 23/23 Q1012
Conditions at: NVVV (BAUERFIELD/EFATE, VU) observed 1300 UTC 18 April 2019
Temperature: 23.0°C (73°F)
Dewpoint: 23.0°C (73°F) [RH = 100%]
Pressure (altimeter): 29.88 inches Hg (1012.0 mb)
Winds: from the ENE (60 degrees) at 2 MPH (2 knots; 1.0 m/s)
Visibility: 6 or more miles (10+ km)
Ceiling: at least 12,000 feet AGL
Clouds: few clouds at 2000 feet AGL
Weather: no significant weather observed at this time

METAR text: NVVV 181200Z 04002KT 9999 FEW020 23/23 Q1012
Conditions at: NVVV (BAUERFIELD/EFATE, VU) observed 1200 UTC 18 April 2019
Temperature: 23.0°C (73°F)
Dewpoint: 23.0°C (73°F) [RH = 100%]
Pressure (altimeter): 29.88 inches Hg (1012.0 mb)
Winds: from the NE (40 degrees) at 2 MPH (2 knots; 1.0 m/s)
Visibility: 6 or more miles (10+ km)
Ceiling: at least 12,000 feet AGL
Clouds: few clouds at 2000 feet AGL
Weather: no significant weather observed at this time

METAR text: NVVV 181100Z 09003KT 9999 FEW020 BKN300 23/23 Q1012
Conditions at: NVVV (BAUERFIELD/EFATE, VU) observed 1100 UTC 18 April 2019
Temperature: 23.0°C (73°F)
Dewpoint: 23.0°C (73°F) [RH = 100%]
Pressure (altimeter): 29.88 inches Hg (1012.0 mb)
Winds: from the E (90 degrees) at 3 MPH (3 knots; 1.5 m/s)
Visibility: 6 or more miles (10+ km)
Ceiling: 30000 feet AGL
Clouds: few clouds at 2000 feet AGL
broken clouds at 30000 feet AGL
Weather: no significant weather observed at this time

METAR text: NVVV 181000Z 05002KT 9999 FEW020 SCT300 24/23 Q1012
Conditions at: NVVV (BAUERFIELD/EFATE, VU) observed 1000 UTC 18 April 2019
Temperature: 24.0°C (75°F)
Dewpoint: 23.0°C (73°F) [RH = 94%]
Pressure (altimeter): 29.88 inches Hg (1012.0 mb)
Winds: from the NE (50 degrees) at 2 MPH (2 knots; 1.0 m/s)
Visibility: 6 or more miles (10+ km)
Ceiling: at least 12,000 feet AGL
Clouds: few clouds at 2000 feet AGL
scattered clouds at 30000 feet AGL
Weather: no significant weather observed at this time

METAR text: NVVV 180900Z 04001KT 9999 FEW020 SCT300 25/24 Q1012
Conditions at: NVVV (BAUERFIELD/EFATE, VU) observed 0900 UTC 18 April 2019
Temperature: 25.0°C (77°F)
Dewpoint: 24.0°C (75°F) [RH = 94%]
Pressure (altimeter): 29.88 inches Hg (1012.0 mb)
Winds: from the NE (40 degrees) at 1 MPH (1 knots; 0.5 m/s)
Visibility: 6 or more miles (10+ km)
Ceiling: at least 12,000 feet AGL
Clouds: few clouds at 2000 feet AGL
scattered clouds at 30000 feet AGL
Weather: no significant weather observed at this time

METAR text: NVVV 180800Z 04002KT 9999 FEW020 25/24 Q1011
Conditions at: NVVV (BAUERFIELD/EFATE, VU) observed 0800 UTC 18 April 2019
Temperature: 25.0°C (77°F)
Dewpoint: 24.0°C (75°F) [RH = 94%]
Pressure (altimeter): 29.85 inches Hg (1011.0 mb)
Winds: from the NE (40 degrees) at 2 MPH (2 knots; 1.0 m/s)
Visibility: 6 or more miles (10+ km)
Ceiling: at least 12,000 feet AGL
Clouds: few clouds at 2000 feet AGL
Weather: no significant weather observed at this time

METAR text: NVVV 180700Z 09003KT 9999 SCT020 BKN300 26/24 Q1010
Conditions at: NVVV (BAUERFIELD/EFATE, VU) observed 0700 UTC 18 April 2019
Temperature: 26.0°C (79°F)
Dewpoint: 24.0°C (75°F) [RH = 89%]
Pressure (altimeter): 29.82 inches Hg (1010.0 mb)
Winds: from the E (90 degrees) at 3 MPH (3 knots; 1.5 m/s)
Visibility: 6 or more miles (10+ km)
Ceiling: 30000 feet AGL
Clouds: scattered clouds at 2000 feet AGL
broken clouds at 30000 feet AGL
Weather: no significant weather observed at this time

METAR text: NVVV 180600Z 09005KT 9999 SCT020 BKN300 27/25 Q1010
Conditions at: NVVV (BAUERFIELD/EFATE, VU) observed 0600 UTC 18 April 2019
Temperature: 27.0°C (81°F)
Dewpoint: 25.0°C (77°F) [RH = 89%]
Pressure (altimeter): 29.82 inches Hg (1010.0 mb)
Winds: from the E (90 degrees) at 6 MPH (5 knots; 2.6 m/s)
Visibility: 6 or more miles (10+ km)
Ceiling: 30000 feet AGL
Clouds: scattered clouds at 2000 feet AGL
broken clouds at 30000 feet AGL
Weather: no significant weather observed at this time

METAR text: NVVV 180500Z 06004KT 9999 -DZ BKN020 28/25 Q1009
Conditions at: NVVV (BAUERFIELD/EFATE, VU) observed 0500 UTC 18 April 2019
Temperature: 28.0°C (82°F)
Dewpoint: 25.0°C (77°F) [RH = 84%]
Pressure (altimeter): 29.79 inches Hg (1009.0 mb)
Winds: from the ENE (60 degrees) at 5 MPH (4 knots; 2.1 m/s)
Visibility: 6 or more miles (10+ km)
Ceiling: 2000 feet AGL
Clouds: broken clouds at 2000 feet AGL
Weather: -DZ  (light drizzle)

METAR text: NVVV 180400Z 04007KT 9999 BKN020 29/24 Q1009
Conditions at: NVVV (BAUERFIELD/EFATE, VU) observed 0400 UTC 18 April 2019
Temperature: 29.0°C (84°F)
Dewpoint: 24.0°C (75°F) [RH = 74%]
Pressure (altimeter): 29.79 inches Hg (1009.0 mb)
Winds: from the NE (40 degrees) at 8 MPH (7 knots; 3.6 m/s)
Visibility: 6 or more miles (10+ km)
Ceiling: 2000 feet AGL
Clouds: broken clouds at 2000 feet AGL
Weather: no significant weather observed at this time

METAR text: NVVV 180300Z 05002KT 9999 BKN020 29/25 Q1009
Conditions at: NVVV (BAUERFIELD/EFATE, VU) observed 0300 UTC 18 April 2019
Temperature: 29.0°C (84°F)
Dewpoint: 25.0°C (77°F) [RH = 79%]
Pressure (altimeter): 29.79 inches Hg (1009.0 mb)
Winds: from the NE (50 degrees) at 2 MPH (2 knots; 1.0 m/s)
Visibility: 6 or more miles (10+ km)
Ceiling: 2000 feet AGL
Clouds: broken clouds at 2000 feet AGL
Weather: no significant weather observed at this time

Forecast for: NVVV (BAUERFIELD/EFATE, VU)
Text: TAF NVVV 191000Z 1912/2012 11005KT 9999 SCT020 BKN040 INTER 1912/1918 9000 -SHRA BKN018
Forecast period: 1200 UTC 19 April 2019 to 1200 UTC 20 April 2019
Forecast type: FROM: standard forecast or significant change
Winds: from the ESE (110 degrees) at 6 MPH (5 knots; 2.6 m/s)
Visibility: 6 or more miles 10+ km)
Ceiling: 4000 feet AGL
Clouds: scattered clouds at 2000 feet AGL
broken clouds at 4000 feet AGL
Weather: no significant weather forecast for this period
Text:
Forecast period: 1200 to 1800 UTC 19 April 2019
Forecast type: TEMPORARY: The following changes expected for less than half the time period
Visibility: 6 miles (9 km)
Ceiling: 1800 feet AGL
Clouds: broken clouds at 1800 feet AGL
Weather: -SHRA  (light rain showers)